Time;durP1;ratioP1;P1;durP2;ratioP2;P2;SDS_P1;SDS_P2;PMS_P1;PMS_P2;Temp;Humidity;BMP_temperature;BMP_pressure;BME280_temperature;BME280_humidity;BME280_pressure;Samples;Min_cycle;Max_cycle;Signal;HPM_P1;HPM_P2
2022/01/18 00:00:47;;;;;;;0.20;0.20;;;;;;;19.19;40.95;103285.19;5146822;27;20053;-33
2022/01/18 00:03:14;;;;;;;0.20;0.20;;;;;;;19.18;41.10;103284.34;5131059;27;20046;-33
2022/01/18 00:05:43;;;;;;;0.20;0.20;;;;;;;19.18;41.09;103291.78;5144237;27;20047;-35
2022/01/18 00:08:08;;;;;;;0.20;0.20;;;;;;;19.17;41.12;103293.72;5117382;27;20130;-33
2022/01/18 00:10:34;;;;;;;0.20;0.20;;;;;;;19.19;40.87;103296.22;5151624;27;20091;-33
2022/01/18 00:15:43;;;;;;;0.20;0.20;;;;;;;19.17;41.13;103287.31;5172702;27;20200;-32
2022/01/18 00:18:13;;;;;;;0.25;0.25;;;;;;;19.17;41.13;103287.31;5165199;27;20035;-33
2022/01/18 00:21:18;;;;;;;0.30;0.30;;;;;;;19.16;41.06;103292.00;5153254;27;20466;-34
2022/01/18 00:23:46;;;;;;;0.20;0.20;;;;;;;19.17;40.94;103287.31;5136923;27;20058;-32
2022/01/18 00:26:12;;;;;;;0.25;0.25;;;;;;;19.16;41.00;103291.16;5131928;27;20046;-33
2022/01/18 00:28:38;;;;;;;0.20;0.20;;;;;;;19.17;40.90;103298.34;5151071;27;20043;-34
2022/01/18 00:31:33;;;;;;;0.20;0.20;;;;;;;19.15;41.07;103293.06;5152718;27;20039;-32
2022/01/18 00:34:29;;;;;;;0.20;0.20;;;;;;;19.15;40.97;103298.59;5131943;27;20043;-31
2022/01/18 00:36:53;;;;;;;0.20;0.20;;;;;;;19.16;41.12;103297.50;5137069;27;20035;-31
2022/01/18 00:39:19;;;;;;;0.20;0.20;;;;;;;19.15;41.07;103308.78;5155999;27;20039;-33
2022/01/18 00:41:45;;;;;;;0.20;0.20;;;;;;;19.15;40.92;103306.88;5150882;27;20038;-33
2022/01/18 00:44:11;;;;;;;0.20;0.20;;;;;;;19.16;41.07;103307.72;5153630;27;20408;-31
2022/01/18 00:46:37;;;;;;;0.20;0.20;;;;;;;19.15;41.06;103312.41;5159516;27;20478;-31
2022/01/18 00:49:04;;;;;;;0.20;0.20;;;;;;;19.15;41.23;103311.56;5115140;27;20542;-33
2022/01/18 00:51:34;;;;;;;0.20;0.20;;;;;;;19.15;40.95;103314.31;5155504;27;20315;-34
2022/01/18 00:54:00;;;;;;;0.20;0.20;;;;;;;19.15;41.15;103308.78;5135419;27;20042;-31
2022/01/18 00:56:30;;;;;;;0.20;0.20;;;;;;;19.15;41.23;103320.69;5157413;27;20074;-32
2022/01/18 00:58:55;;;;;;;0.28;0.28;;;;;;;19.16;41.07;103316.84;5161731;27;20545;-32
2022/01/18 01:01:24;;;;;;;0.20;0.20;;;;;;;19.15;41.06;103323.44;5139139;27;20129;-32
2022/01/18 01:03:51;;;;;;;0.30;0.30;;;;;;;19.15;41.01;103328.13;5116149;27;20091;-31
2022/01/18 01:06:17;;;;;;;0.30;0.30;;;;;;;19.14;41.24;103337.50;5136936;27;20039;-35
2022/01/18 01:08:42;;;;;;;0.20;0.20;;;;;;;19.14;41.04;103343.88;5137648;27;20046;-35
2022/01/18 01:11:09;;;;;;;0.20;0.20;;;;;;;19.14;41.01;103343.03;5150534;27;20031;-38
2022/01/18 01:13:37;;;;;;;0.28;0.28;;;;;;;19.14;40.99;103340.25;5134837;27;20046;-31
2022/01/18 01:16:46;;;;;;;0.20;0.20;;;;;;;19.13;41.17;103335.78;5138325;27;20079;-37
2022/01/18 01:32:52;;;;;;;0.20;0.20;;;;;;;19.12;41.15;103332.16;5125939;27;20054;-34
2022/01/18 01:35:14;;;;;;;0.20;0.20;;;;;;;19.12;41.16;103337.69;5123362;27;20039;-36
2022/01/18 01:43:21;;;;;;;0.20;0.20;;;;;;;19.12;41.05;103323.03;5112181;27;20046;-33
2022/01/18 01:45:48;;;;;;;0.20;0.20;;;;;;;19.11;41.07;103333.25;5142756;27;20038;-33
2022/01/18 01:48:14;;;;;;;0.30;0.30;;;;;;;19.12;41.02;103334.09;5129728;27;20054;-33
2022/01/18 01:50:48;;;;;;;0.30;0.30;;;;;;;19.13;41.21;103338.53;5119143;27;20035;-31
2022/01/18 01:53:15;;;;;;;0.20;0.20;;;;;;;19.11;41.11;103340.69;5122048;27;20051;-32
2022/01/18 01:55:41;;;;;;;0.20;0.20;;;;;;;19.12;40.99;103332.16;5142969;27;20058;-34
2022/01/18 01:58:07;;;;;;;0.20;0.20;;;;;;;19.11;41.14;103340.69;5127100;27;20473;-31
2022/01/18 02:00:34;;;;;;;0.20;0.20;;;;;;;19.10;41.33;103342.63;5118936;27;20047;-31
2022/01/18 02:02:59;;;;;;;0.20;0.20;;;;;;;19.10;41.05;103333.47;5144086;27;20035;-33
2022/01/18 02:05:26;;;;;;;0.30;0.30;;;;;;;19.10;41.05;103336.25;5141833;27;20081;-33
2022/01/18 02:07:51;;;;;;;0.20;0.20;;;;;;;19.11;41.16;103335.16;5141297;27;20461;-34
2022/01/18 02:10:17;;;;;;;0.20;0.20;;;;;;;19.10;40.99;103339.84;5138688;27;20057;-32
2022/01/18 02:12:43;;;;;;;0.20;0.20;;;;;;;19.10;41.07;103345.38;5136817;27;20042;-33
2022/01/18 02:15:14;;;;;;;0.20;0.20;;;;;;;19.09;41.00;103349.22;5139832;27;20051;-34
2022/01/18 02:23:22;;;;;;;0.20;0.20;;;;;;;19.09;41.09;103337.31;5123144;27;21435;-33
2022/01/18 02:25:48;;;;;;;0.20;0.20;;;;;;;19.09;41.12;103337.31;5137328;27;20084;-31
2022/01/18 02:28:15;;;;;;;0.20;0.20;;;;;;;19.09;41.23;103334.56;5145382;27;20073;-33
2022/01/18 02:30:40;;;;;;;0.20;0.20;;;;;;;19.08;41.32;103336.44;5122749;27;20111;-35
2022/01/18 02:33:06;;;;;;;0.20;0.20;;;;;;;19.09;41.19;103337.31;5141328;27;20039;-35
2022/01/18 02:35:33;;;;;;;0.20;0.20;;;;;;;19.09;41.03;103338.16;5138003;27;20050;-35
2022/01/18 02:37:59;;;;;;;0.20;0.20;;;;;;;19.08;41.31;103327.31;5144708;27;20050;-34
2022/01/18 02:40:25;;;;;;;0.20;0.20;;;;;;;19.09;41.13;103334.56;5137683;27;20450;-33
2022/01/18 02:42:58;;;;;;;0.20;0.20;;;;;;;19.08;41.35;103332.84;5132133;27;20312;-34
2022/01/18 02:45:24;;;;;;;0.20;0.20;;;;;;;19.08;41.01;103333.69;5106783;27;20478;-32
2022/01/18 02:47:51;;;;;;;0.20;0.20;;;;;;;19.09;41.30;103331.78;5123863;27;20054;-32
2022/01/18 02:50:17;;;;;;;0.20;0.20;;;;;;;19.07;41.21;103334.75;5137216;27;20043;-37
2022/01/18 02:52:43;;;;;;;0.20;0.20;;;;;;;19.08;41.31;103330.06;5135227;27;20050;-31
2022/01/18 02:55:09;;;;;;;0.20;0.20;;;;;;;19.09;41.46;103329.03;5135626;27;20092;-31
2022/01/18 02:57:41;;;;;;;0.30;0.30;;;;;;;19.07;41.20;103325.63;5139846;27;20508;-31
2022/01/18 03:00:19;;;;;;;0.20;0.20;;;;;;;19.08;41.25;103325.41;5135231;27;20050;-32
2022/01/18 03:03:17;;;;;;;0.20;0.20;;;;;;;19.08;41.20;103328.16;5108031;27;20049;-32
2022/01/18 03:05:31;;;;;;;0.20;0.20;;;;;;;19.07;41.32;103317.34;5118399;27;20477;-31
2022/01/18 03:07:57;;;;;;;0.20;0.20;;;;;;;19.07;41.13;103315.44;5139484;27;20094;-33
2022/01/18 03:10:22;;;;;;;0.20;0.20;;;;;;;19.06;41.33;103324.78;5135556;27;20085;-31
2022/01/18 03:12:48;;;;;;;0.20;0.20;;;;;;;19.07;41.34;103333.91;5136759;27;20039;-33
2022/01/18 03:15:14;;;;;;;0.20;0.20;;;;;;;19.07;41.33;103328.41;5138907;27;20047;-32
2022/01/18 03:17:40;;;;;;;0.20;0.20;;;;;;;19.07;41.24;103332.00;5120091;27;20087;-32
2022/01/18 03:20:06;;;;;;;0.30;0.30;;;;;;;19.07;41.32;103333.91;5137099;27;20082;-32
2022/01/18 03:22:32;;;;;;;0.30;0.30;;;;;;;19.07;41.30;103333.91;5137840;27;20564;-31
2022/01/18 03:25:03;;;;;;;0.22;0.22;;;;;;;19.07;41.07;103334.75;5139663;27;20042;-34
2022/01/18 03:30:14;;;;;;;0.20;0.20;;;;;;;19.07;41.26;103333.91;5126101;27;20043;-35
2022/01/18 03:32:40;;;;;;;0.20;0.20;;;;;;;19.06;41.39;103338.59;5140763;27;20039;-34
2022/01/18 03:35:07;;;;;;;0.20;0.20;;;;;;;19.08;41.13;103341.13;5133049;27;20043;-32
2022/01/18 03:37:33;;;;;;;0.20;0.20;;;;;;;19.06;41.36;103346.88;5122019;27;20051;-35
2022/01/18 03:39:59;;;;;;;0.30;0.30;;;;;;;19.04;41.13;103344.34;5138321;27;20082;-32
2022/01/18 03:42:37;;;;;;;0.20;0.20;;;;;;;19.06;41.36;103346.88;5136335;27;20047;-34
2022/01/18 03:45:04;;;;;;;;;;;;;;;19.05;41.08;103354.31;5121329;27;20530;-36
2022/01/18 03:47:32;;;;;;;0.20;0.20;;;;;;;19.05;41.16;103356.25;5139949;27;19927;-33
2022/01/18 03:49:58;;;;;;;0.30;0.30;;;;;;;19.05;41.31;103356.25;5120349;27;20436;-32
2022/01/18 03:52:24;;;;;;;0.20;0.20;;;;;;;19.04;41.22;103355.41;5133327;27;20124;-35
2022/01/18 03:54:50;;;;;;;0.20;0.20;;;;;;;19.04;41.14;103355.41;5124952;27;20047;-32
2022/01/18 03:57:16;;;;;;;0.20;0.20;;;;;;;19.03;41.38;103341.78;5136526;27;20092;-32
2022/01/18 03:59:43;;;;;;;0.30;0.30;;;;;;;19.04;41.21;103352.63;5120000;27;20035;-38
2022/01/18 04:02:08;;;;;;;0.20;0.20;;;;;;;19.04;41.32;103349.88;5118338;27;20034;-33
2022/01/18 04:04:35;;;;;;;0.20;0.20;;;;;;;19.04;41.39;103357.28;5143224;27;20070;-32
2022/01/18 04:07:01;;;;;;;0.20;0.20;;;;;;;19.03;41.19;103358.38;5134018;27;20141;-36
2022/01/18 04:09:26;;;;;;;0.20;0.20;;;;;;;19.04;41.29;103354.53;5119336;27;21148;-31
2022/01/18 04:11:52;;;;;;;0.20;0.20;;;;;;;19.04;41.38;103352.63;5137509;27;20039;-35
2022/01/18 04:14:18;;;;;;;0.20;0.20;;;;;;;19.03;41.26;103352.84;5117083;27;20046;-34
2022/01/18 04:16:59;;;;;;;0.20;0.20;;;;;;;19.03;41.15;103344.56;5126351;27;20042;-37
2022/01/18 04:27:54;;;;;;;0.20;0.20;;;;;;;19.03;41.42;103352.84;5129327;27;20039;-27
2022/01/18 04:30:21;;;;;;;0.20;0.20;;;;;;;19.02;41.30;103357.53;5163107;27;20046;-28
2022/01/18 04:32:47;;;;;;;0.30;0.30;;;;;;;19.02;41.40;103357.53;5164726;27;20047;-27
2022/01/18 04:35:13;;;;;;;0.20;0.20;;;;;;;19.03;41.42;103358.38;5163056;27;20076;-27
2022/01/18 04:37:38;;;;;;;0.20;0.20;;;;;;;19.03;41.24;103361.13;5160836;27;20598;-27
2022/01/18 04:40:12;;;;;;;0.20;0.20;;;;;;;19.03;41.30;103352.84;5164234;27;20050;-27
2022/01/18 04:43:01;;;;;;;0.20;0.20;;;;;;;19.02;41.23;103349.25;5162595;27;20165;-27
2022/01/18 04:48:41;;;;;;;0.20;0.20;;;;;;;19.03;41.23;103341.78;5133305;27;20039;-27
2022/01/18 04:51:01;;;;;;;0.30;0.30;;;;;;;19.01;41.24;103336.50;5131418;27;20053;-27
2022/01/18 04:53:31;;;;;;;0.20;0.20;;;;;;;19.01;41.19;103339.25;5139733;27;20094;-27
2022/01/18 04:56:00;;;;;;;0.20;0.20;;;;;;;19.02;41.42;103340.09;5145708;27;20382;-27
2022/01/18 04:58:26;;;;;;;0.30;0.30;;;;;;;19.02;41.39;103353.91;5154877;27;20126;-28
2022/01/18 05:00:54;;;;;;;0.20;0.20;;;;;;;19.02;41.24;103348.41;5163635;27;20049;-27
2022/01/18 05:03:21;;;;;;;0.20;0.20;;;;;;;19.03;41.32;103355.59;5141079;27;20047;-27
2022/01/18 05:05:49;;;;;;;0.20;0.20;;;;;;;19.02;41.36;103354.75;5143370;27;20061;-27
2022/01/18 05:08:15;;;;;;;0.22;0.22;;;;;;;19.02;41.45;103359.44;5140318;27;20383;-27
2022/01/18 05:10:42;;;;;;;0.20;0.20;;;;;;;19.01;41.24;103355.84;5162330;27;20057;-28
2022/01/18 05:16:07;;;;;;;0.20;0.20;;;;;;;19.01;41.40;103360.50;5136791;27;20038;-27
2022/01/18 05:21:21;;;;;;;0.20;0.20;;;;;;;19.00;41.44;103362.44;5168099;27;20668;-27
2022/01/18 05:23:47;;;;;;;0.20;0.20;;;;;;;19.01;41.45;103369.66;5145024;27;20038;-27
2022/01/18 05:26:12;;;;;;;0.20;0.20;;;;;;;19.02;41.25;103373.25;5151953;27;20537;-27
2022/01/18 05:28:38;;;;;;;0.20;0.20;;;;;;;19.00;41.43;103373.47;5149626;27;20038;-28
2022/01/18 05:31:04;;;;;;;0.20;0.20;;;;;;;19.01;41.29;103368.81;5148237;27;20066;-27
2022/01/18 05:33:30;;;;;;;0.20;0.20;;;;;;;19.01;41.40;103380.69;5149582;27;20039;-27
2022/01/18 05:35:55;;;;;;;0.20;0.20;;;;;;;19.00;41.52;103370.72;5148834;27;20035;-27
2022/01/18 05:38:21;;;;;;;0.20;0.20;;;;;;;19.00;41.49;103379.00;5143192;27;20465;-27
2022/01/18 05:40:47;;;;;;;0.20;0.20;;;;;;;19.00;41.47;103370.72;5151938;27;20047;-27
2022/01/18 05:43:12;;;;;;;0.20;0.20;;;;;;;19.00;41.55;103375.41;5144249;27;20061;-28
2022/01/18 05:45:39;;;;;;;0.20;0.20;;;;;;;19.00;41.54;103372.63;5147904;27;20443;-27
2022/01/18 05:48:05;;;;;;;0.20;0.20;;;;;;;19.00;41.59;103375.41;5133602;27;20051;-27
2022/01/18 05:50:30;;;;;;;0.20;0.20;;;;;;;19.00;41.55;103369.88;5151067;27;20529;-27
2022/01/18 05:52:56;;;;;;;0.20;0.20;;;;;;;18.99;41.41;103373.69;5146194;27;20056;-27
2022/01/18 05:55:22;;;;;;;0.20;0.20;;;;;;;18.99;41.48;103368.16;5149153;27;20043;-28
2022/01/18 05:57:47;;;;;;;0.20;0.20;;;;;;;18.99;41.33;103373.69;5144788;27;20034;-27
2022/01/18 06:00:20;;;;;;;0.20;0.20;;;;;;;19.00;41.50;103379.00;5149853;27;20047;-28
2022/01/18 06:02:59;;;;;;;0.20;0.20;;;;;;;18.99;41.50;103382.81;5150472;27;20078;-28
2022/01/18 06:08:15;;;;;;;0.20;0.20;;;;;;;18.99;41.48;103387.50;5118546;27;20095;-27
2022/01/18 06:10:41;;;;;;;0.20;0.20;;;;;;;18.98;41.55;103386.66;5150667;27;20058;-26
2022/01/18 06:13:08;;;;;;;0.20;0.20;;;;;;;18.98;41.60;103381.13;5151228;27;20046;-27
2022/01/18 06:15:34;;;;;;;0.20;0.20;;;;;;;19.00;41.44;103395.56;5147261;27;20046;-27
2022/01/18 06:18:00;;;;;;;0.20;0.20;;;;;;;19.00;41.64;103387.28;5142660;27;20047;-28
2022/01/18 06:20:26;;;;;;;0.20;0.20;;;;;;;18.99;41.72;103391.09;5131015;27;20123;-28
2022/01/18 06:22:51;;;;;;;0.20;0.20;;;;;;;18.99;41.45;103391.09;5118683;27;20050;-27
2022/01/18 06:25:18;;;;;;;0.30;0.30;;;;;;;18.99;41.71;103387.50;5138289;27;20043;-27
2022/01/18 06:27:44;;;;;;;0.20;0.20;;;;;;;18.99;41.46;103384.72;5137454;27;20304;-27
2022/01/18 06:30:10;;;;;;;0.20;0.20;;;;;;;18.98;41.50;103389.41;5135700;27;20216;-29
2022/01/18 06:32:37;;;;;;;0.20;0.20;;;;;;;18.99;41.51;103390.25;5124931;27;20054;-29
2022/01/18 06:35:04;;;;;;;0.20;0.20;;;;;;;18.99;41.65;103393.00;5117753;27;20042;-29
2022/01/18 06:37:29;;;;;;;0.20;0.20;;;;;;;18.97;41.78;103398.75;5103435;28;20039;-29
2022/01/18 06:39:57;;;;;;;0.20;0.20;;;;;;;18.99;41.72;103395.78;5119142;27;20081;-30
2022/01/18 06:42:24;;;;;;;0.20;0.20;;;;;;;18.98;41.45;103392.16;5122483;27;20043;-29
2022/01/18 06:44:51;;;;;;;0.20;0.20;;;;;;;18.99;41.60;103398.53;5112634;27;20126;-29
2022/01/18 06:47:17;;;;;;;0.20;0.20;;;;;;;18.98;41.31;103397.69;5118378;27;20473;-28
2022/01/18 06:49:42;;;;;;;0.20;0.20;;;;;;;18.99;41.56;103393.00;5124490;27;20062;-29
2022/01/18 06:52:08;;;;;;;0.20;0.20;;;;;;;18.98;41.50;103400.44;5118351;27;20043;-29
2022/01/18 06:54:34;;;;;;;0.20;0.20;;;;;;;18.99;41.52;103396.63;5100485;28;20047;-30
2022/01/18 06:57:00;;;;;;;0.20;0.20;;;;;;;18.98;41.52;103403.22;5120479;27;20043;-28
2022/01/18 06:59:25;;;;;;;0.20;0.20;;;;;;;18.99;41.56;103404.91;5116250;27;20182;-29
2022/01/18 07:01:51;;;;;;;0.20;0.20;;;;;;;18.99;41.52;103415.09;5123423;27;20096;-29
2022/01/18 07:04:17;;;;;;;0.20;0.20;;;;;;;18.98;41.89;103407.91;5119539;27;20050;-28
2022/01/18 07:06:45;;;;;;;0.20;0.20;;;;;;;18.98;41.39;103410.66;5116546;27;20054;-29
2022/01/18 07:09:13;;;;;;;0.20;0.20;;;;;;;19.00;41.61;103416.81;5118797;27;20043;-28
2022/01/18 07:11:39;;;;;;;0.20;0.20;;;;;;;19.00;41.45;103419.59;5108967;27;20453;-28
2022/01/18 07:14:05;;;;;;;0.20;0.20;;;;;;;18.99;41.39;103420.63;5091963;27;20419;-28
2022/01/18 07:16:34;;;;;;;0.20;0.20;;;;;;;18.98;41.44;103416.19;5116487;27;20042;-30
2022/01/18 07:19:00;;;;;;;0.20;0.20;;;;;;;18.98;41.53;103413.41;5120340;27;20373;-28
2022/01/18 07:21:26;;;;;;;0.20;0.20;;;;;;;18.98;41.46;103417.03;5093100;28;20055;-28
2022/01/18 07:24:02;;;;;;;0.20;0.20;;;;;;;18.97;41.54;103415.34;5112862;27;20054;-27
2022/01/18 07:26:28;;;;;;;0.20;0.20;;;;;;;18.97;41.60;103411.72;5117091;27;20050;-28
2022/01/18 07:28:54;;;;;;;0.20;0.20;;;;;;;18.99;41.64;103415.09;5108049;27;20047;-28
2022/01/18 07:31:19;;;;;;;0.20;0.20;;;;;;;18.98;41.65;103419.78;5125591;27;20077;-28
2022/01/18 07:33:45;;;;;;;0.20;0.20;;;;;;;18.98;41.50;103421.69;5122733;27;20406;-28
2022/01/18 07:36:11;;;;;;;0.20;0.20;;;;;;;18.99;41.71;103420.63;5117400;27;20043;-28
2022/01/18 07:38:36;;;;;;;0.20;0.20;;;;;;;18.98;41.54;103414.25;5121057;27;20092;-29
2022/01/18 07:41:02;;;;;;;0.20;0.20;;;;;;;18.98;41.61;103410.66;5115460;27;20050;-29
2022/01/18 07:43:28;;;;;;;0.20;0.20;;;;;;;18.98;41.64;103416.19;5112432;27;20433;-28
2022/01/18 07:45:54;;;;;;;0.20;0.20;;;;;;;18.97;41.46;103409.81;5122223;27;20058;-29
2022/01/18 07:48:23;;;;;;;0.20;0.20;;;;;;;18.98;41.82;103413.41;5120646;27;20055;-28
2022/01/18 07:50:48;;;;;;;;;;;;;;;18.98;41.68;103421.69;5118344;27;20127;-28
2022/01/18 07:53:14;;;;;;;0.20;0.20;;;;;;;18.97;41.70;103425.53;5119093;27;19919;-28
2022/01/18 07:55:39;;;;;;;0.20;0.20;;;;;;;18.98;41.35;103433.59;5112189;27;20051;-28
2022/01/18 07:58:05;;;;;;;0.20;0.20;;;;;;;18.96;41.62;103432.97;5113331;27;20112;-29
2022/01/18 08:00:32;;;;;;;0.20;0.20;;;;;;;18.98;41.60;103443.78;5110648;27;20058;-28
2022/01/18 08:02:58;;;;;;;0.20;0.20;;;;;;;18.98;41.43;103441.03;5099305;27;20051;-28
2022/01/18 08:05:23;;;;;;;0.20;0.20;;;;;;;18.95;41.73;103439.53;5111688;27;20048;-28
2022/01/18 08:07:49;;;;;;;0.30;0.30;;;;;;;18.96;41.53;103437.66;5114207;27;20055;-29
2022/01/18 08:10:17;;;;;;;0.20;0.20;;;;;;;18.96;41.57;103443.19;5110494;27;20055;-29
2022/01/18 08:12:43;;;;;;;0.20;0.20;;;;;;;18.97;41.57;103444.88;5097202;27;20039;-28
2022/01/18 08:15:15;;;;;;;0.20;0.20;;;;;;;18.96;41.66;103448.69;5072369;27;20043;-28
2022/01/18 08:17:53;;;;;;;0.20;0.20;;;;;;;18.97;41.58;103445.72;5094663;27;20074;-28
2022/01/18 08:20:19;;;;;;;0.20;0.20;;;;;;;18.94;41.53;103448.91;5093884;27;20043;-28
2022/01/18 08:22:45;;;;;;;0.28;0.28;;;;;;;18.97;41.53;103450.38;5111843;27;20424;-28
2022/01/18 08:25:12;;;;;;;0.20;0.20;;;;;;;18.97;41.44;103448.47;5079649;27;20445;-30
2022/01/18 08:27:39;;;;;;;0.20;0.20;;;;;;;18.97;41.57;103445.72;5099019;27;20097;-29
2022/01/18 08:30:07;;;;;;;0.20;0.20;;;;;;;18.95;41.32;103447.81;5100734;27;20487;-28
2022/01/18 08:32:32;;;;;;;0.30;0.30;;;;;;;18.95;41.40;103439.53;5096577;27;20056;-28
2022/01/18 08:34:58;;;;;;;0.20;0.20;;;;;;;18.94;41.38;103437.84;5089699;27;20081;-29
2022/01/18 08:37:24;;;;;;;0.20;0.20;;;;;;;18.94;41.22;103435.09;5110076;27;20043;-30
2022/01/18 08:39:50;;;;;;;0.20;0.20;;;;;;;18.95;41.62;103442.31;5115123;27;20047;-30
2022/01/18 08:42:15;;;;;;;0.20;0.20;;;;;;;18.96;41.44;103443.19;5113360;27;20044;-29
2022/01/18 08:44:43;;;;;;;0.20;0.20;;;;;;;18.95;41.37;103444.22;5096145;27;20035;-30
2022/01/18 08:47:11;;;;;;;0.20;0.20;;;;;;;18.94;41.50;103446.13;5110640;27;20131;-28
2022/01/18 08:49:37;;;;;;;0.20;0.20;;;;;;;18.95;41.32;103447.81;5078987;27;20051;-28
2022/01/18 08:52:03;;;;;;;0.20;0.20;;;;;;;18.96;41.52;103452.31;5111406;27;20088;-29
2022/01/18 08:54:29;;;;;;;0.20;0.20;;;;;;;18.95;41.59;103447.81;5108159;27;20055;-29
2022/01/18 08:56:54;;;;;;;0.20;0.20;;;;;;;18.94;41.53;103448.91;5101172;27;20374;-28
2022/01/18 08:59:21;;;;;;;0.28;0.28;;;;;;;18.95;41.52;103449.75;5114434;27;20041;-28
2022/01/18 09:01:47;;;;;;;0.20;0.20;;;;;;;18.96;41.60;103459.75;5119252;27;20047;-29
2022/01/18 09:04:13;;;;;;;0.20;0.20;;;;;;;18.95;41.55;103456.09;5113369;27;20061;-28
2022/01/18 09:06:40;;;;;;;0.20;0.20;;;;;;;18.97;41.37;103458.69;5103633;27;20046;-29
2022/01/18 09:09:06;;;;;;;0.20;0.20;;;;;;;18.94;41.60;103457.19;5108694;27;20054;-29
2022/01/18 09:11:31;;;;;;;0.20;0.20;;;;;;;18.95;41.56;103458.03;5109441;27;20133;-29
2022/01/18 09:13:57;;;;;;;0.20;0.20;;;;;;;18.96;41.49;103457.84;5104725;27;20410;-28
2022/01/18 09:16:23;;;;;;;0.20;0.20;;;;;;;18.95;41.48;103460.78;5103653;27;20056;-29
2022/01/18 09:18:50;;;;;;;0.20;0.20;;;;;;;18.96;41.43;103459.75;5108311;27;20047;-32
2022/01/18 09:21:17;;;;;;;0.20;0.20;;;;;;;18.95;41.62;103461.63;5114261;27;20567;-29
2022/01/18 09:23:43;;;;;;;0.20;0.20;;;;;;;18.94;41.46;103464.63;5094809;28;20485;-28
2022/01/18 09:26:09;;;;;;;0.20;0.20;;;;;;;18.94;41.67;103465.47;5113616;27;20043;-29
2022/01/18 09:28:35;;;;;;;0.20;0.20;;;;;;;18.95;41.64;103469.06;5080405;27;20043;-29
2022/01/18 09:31:01;;;;;;;0.20;0.20;;;;;;;18.94;41.55;103468.22;5097146;27;20099;-32
2022/01/18 09:33:27;;;;;;;0.20;0.20;;;;;;;18.96;41.55;103465.28;5090769;27;20040;-28
2022/01/18 09:35:52;;;;;;;0.20;0.20;;;;;;;18.94;41.51;103468.22;5112362;27;20043;-29
2022/01/18 09:38:18;;;;;;;0.20;0.20;;;;;;;18.94;41.66;103465.47;5105388;27;20473;-29
2022/01/18 09:40:45;;;;;;;0.20;0.20;;;;;;;18.84;41.08;103462.31;5109434;27;20139;-31
2022/01/18 09:43:13;;;;;;;0.20;0.20;;;;;;;18.91;41.79;103460.41;5089946;27;20042;-28
2022/01/18 09:45:41;;;;;;;0.20;0.20;;;;;;;18.85;41.94;103464.00;5110518;27;21399;-28
2022/01/18 09:48:08;;;;;;;0.20;0.20;;;;;;;18.98;41.80;103472.25;5092008;27;20444;-30
2022/01/18 09:50:35;;;;;;;0.20;0.20;;;;;;;19.02;41.57;103467.16;5089686;28;20051;-28
2022/01/18 09:53:03;;;;;;;0.30;0.30;;;;;;;19.02;41.51;103470.75;5091605;27;20522;-28
2022/01/18 09:55:32;;;;;;;0.20;0.20;;;;;;;19.03;41.47;103474.34;5111713;27;20904;-28
2022/01/18 09:58:00;;;;;;;0.22;0.22;;;;;;;19.03;41.38;103480.72;5115027;27;20155;-30
2022/01/18 10:00:28;;;;;;;0.20;0.20;;;;;;;19.05;41.72;103488.81;5082297;27;20070;-29
2022/01/18 10:02:54;;;;;;;0.20;0.20;;;;;;;19.06;41.37;103482.22;5115781;27;20142;-31
2022/01/18 10:05:24;;;;;;;0.20;0.20;;;;;;;19.08;41.45;103484.75;5110880;27;20047;-29
2022/01/18 10:08:00;;;;;;;0.20;0.20;;;;;;;19.07;41.56;103486.66;5090055;27;20043;-29
2022/01/18 10:10:39;;;;;;;0.20;0.20;;;;;;;19.08;41.34;103491.13;5092196;27;20066;-30
2022/01/18 10:13:05;;;;;;;0.20;0.20;;;;;;;19.08;41.39;103488.34;5110533;27;21253;-29
2022/01/18 10:15:32;;;;;;;0.20;0.20;;;;;;;19.09;41.45;103480.94;5113974;27;20067;-31
2022/01/18 10:18:07;;;;;;;0.20;0.20;;;;;;;19.13;41.36;103482.16;5093629;28;20045;-30
2022/01/18 10:20:48;;;;;;;0.20;0.20;;;;;;;19.16;41.14;103478.97;5075741;27;20426;-28
2022/01/18 10:23:22;;;;;;;0.20;0.20;;;;;;;19.16;41.33;103484.50;5074643;27;20057;-28
2022/01/18 10:25:47;;;;;;;0.25;0.25;;;;;;;19.17;41.38;103484.31;5091485;27;20047;-28
2022/01/18 10:28:31;;;;;;;0.20;0.20;;;;;;;19.17;41.30;103473.25;5114325;27;20147;-30
2022/01/18 10:30:57;;;;;;;0.30;0.30;;;;;;;19.18;41.44;103477.72;5093884;27;20054;-32
2022/01/18 10:33:28;;;;;;;0.20;0.20;;;;;;;19.18;41.33;103474.94;5094839;28;20066;-28
2022/01/18 10:36:12;;;;;;;0.20;0.20;;;;;;;19.20;41.38;103477.47;5112733;27;20073;-29
2022/01/18 10:38:39;;;;;;;0.20;0.20;;;;;;;19.20;41.39;103477.47;5108267;27;20517;-29
2022/01/18 10:41:28;;;;;;;0.20;0.20;;;;;;;19.22;41.45;103475.34;5110897;27;20046;-28
2022/01/18 10:44:17;;;;;;;0.30;0.30;;;;;;;19.23;41.17;103463.25;5093290;27;20323;-29
2022/01/18 10:46:47;;;;;;;0.20;0.20;;;;;;;19.24;41.29;103468.53;5094104;27;20054;-30
2022/01/18 10:49:26;;;;;;;0.20;0.20;;;;;;;19.25;41.26;103463.84;5096249;27;20040;-29
2022/01/18 10:51:57;;;;;;;0.20;0.20;;;;;;;19.26;41.26;103469.19;5082621;27;20046;-31
2022/01/18 10:54:33;;;;;;;0.20;0.20;;;;;;;19.31;41.25;103460.22;5117140;27;20126;-29
2022/01/18 10:57:02;;;;;;;0.20;0.20;;;;;;;19.35;40.96;103463.41;5086754;27;20047;-28
2022/01/18 10:59:29;;;;;;;0.20;0.20;;;;;;;19.33;40.97;103460.84;5111467;27;20045;-28
2022/01/18 11:02:16;;;;;;;0.20;0.20;;;;;;;19.39;40.96;103462.72;5113343;27;20051;-29
2022/01/18 11:04:47;;;;;;;0.20;0.20;;;;;;;19.41;41.04;103454.22;5094802;27;20118;-30
2022/01/18 11:07:15;;;;;;;0.20;0.20;;;;;;;19.40;40.86;103456.13;5115965;27;20051;-28
2022/01/18 11:09:41;;;;;;;0.20;0.20;;;;;;;19.38;40.71;103458.25;5097923;27;20051;-31
2022/01/18 11:12:08;;;;;;;0.20;0.20;;;;;;;19.40;40.74;103450.59;5103780;27;20551;-31
2022/01/18 11:14:37;;;;;;;0.20;0.20;;;;;;;19.46;40.43;103446.09;5088561;27;20047;-34
2022/01/18 11:17:05;;;;;;;0.20;0.20;;;;;;;19.49;40.57;103438.22;5094875;27;20492;-28
2022/01/18 11:19:34;;;;;;;0.20;0.20;;;;;;;19.53;40.79;103439.47;5094751;27;20054;-30
2022/01/18 11:22:06;;;;;;;0.20;0.20;;;;;;;19.53;40.75;103441.38;5099089;27;20379;-29
2022/01/18 11:24:35;;;;;;;0.20;0.20;;;;;;;19.54;40.56;103438.38;5112883;27;20107;-30
2022/01/18 11:27:03;;;;;;;;;;;;;;;19.55;40.48;103442.84;5096218;28;20043;-29
2022/01/18 11:29:30;;;;;;;0.20;0.20;;;;;;;19.55;40.42;103442.84;5112403;27;19919;-31
2022/01/18 11:31:56;;;;;;;0.20;0.20;;;;;;;19.55;40.57;103445.59;5114671;27;20079;-29
2022/01/18 11:34:29;;;;;;;0.20;0.20;;;;;;;19.59;40.57;103447.94;5112752;27;20054;-29
2022/01/18 11:37:03;;;;;;;0.20;0.20;;;;;;;19.60;40.45;103433.88;5102949;27;20043;-31
2022/01/18 11:39:31;;;;;;;0.20;0.20;;;;;;;19.60;40.66;103436.63;5095690;27;20051;-30
2022/01/18 11:42:05;;;;;;;0.20;0.20;;;;;;;19.61;40.61;103440.31;5095141;27;20136;-29
2022/01/18 11:44:31;;;;;;;0.20;0.20;;;;;;;19.63;40.48;103435.38;5108162;27;20399;-29
2022/01/18 11:46:57;;;;;;;0.20;0.20;;;;;;;19.63;40.73;103430.72;5113191;27;20051;-29
2022/01/18 11:49:25;;;;;;;0.20;0.20;;;;;;;19.63;40.69;103433.47;5113008;27;20059;-28
2022/01/18 11:52:02;;;;;;;0.20;0.20;;;;;;;19.63;40.71;103432.63;5101560;27;20414;-34
2022/01/18 11:54:42;;;;;;;0.20;0.20;;;;;;;19.65;40.70;103424.97;5118130;27;20042;-30
2022/01/18 12:00:24;;;;;;;0.20;0.20;;;;;;;19.69;40.47;103415.13;5136690;27;20226;-36
2022/01/18 12:02:54;;;;;;;0.20;0.20;;;;;;;19.70;40.46;103425.16;5120276;27;20043;-31
2022/01/18 12:05:21;;;;;;;0.20;0.20;;;;;;;19.71;40.62;103424.06;5115822;27;20080;-31
2022/01/18 12:07:50;;;;;;;0.20;0.20;;;;;;;19.72;40.50;103414.69;5116460;27;20061;-31
2022/01/18 12:13:11;;;;;;;0.20;0.20;;;;;;;19.72;40.44;103415.53;5160899;27;20257;-31
2022/01/18 12:18:21;;;;;;;0.20;0.20;;;;;;;19.73;40.52;103411.72;5155153;27;20121;-31
2022/01/18 12:20:49;;;;;;;0.20;0.20;;;;;;;19.74;40.60;103409.81;5117455;27;20356;-34
2022/01/18 12:23:18;;;;;;;0.20;0.20;;;;;;;19.75;40.50;103403.19;5101720;27;20045;-36
2022/01/18 12:25:57;;;;;;;0.20;0.20;;;;;;;19.76;40.49;103413.19;5132620;27;20047;-36
2022/01/18 12:34:32;;;;;;;0.20;0.20;;;;;;;19.74;40.18;103405.13;5147791;27;20017;-33
2022/01/18 12:47:49;;;;;;;0.20;0.20;;;;;;;19.83;40.05;103382.72;5162871;27;20244;-31